createdAt,value
2019-01-03T00:02:23.483Z,13.03
2019-01-03T00:05:17.425Z,10.30
2019-01-03T00:11:28.972Z,10.40
2019-01-03T00:14:35.070Z,9.43
2019-01-03T00:17:35.601Z,9.77
2019-01-03T00:21:08.797Z,7.97
2019-01-03T00:24:30.152Z,9.20
2019-01-03T00:27:59.907Z,13.20
2019-01-03T00:31:23.098Z,11.20
2019-01-03T00:41:41.055Z,8.67
2019-01-03T00:44:28.409Z,9.33
2019-01-03T00:47:16.880Z,10.00
2019-01-03T00:50:08.591Z,8.77
2019-01-03T00:52:57.345Z,9.10
2019-01-03T00:55:45.340Z,12.33
2019-01-03T00:58:33.862Z,10.90
2019-01-03T01:01:31.091Z,8.97
2019-01-03T01:04:32.068Z,9.73
2019-01-03T01:07:42.471Z,10.00
2019-01-03T01:14:31.072Z,9.43
2019-01-03T01:17:23.869Z,10.63
2019-01-03T01:20:20.079Z,7.60
2019-01-03T01:23:48.079Z,12.60
2019-01-03T01:26:47.583Z,16.73
2019-01-03T01:29:53.710Z,11.83
2019-01-03T01:32:52.201Z,8.23
2019-01-03T01:36:18.280Z,10.80
2019-01-03T01:39:27.486Z,7.60
2019-01-03T01:42:51.593Z,13.17
2019-01-03T01:46:05.941Z,9.17
2019-01-03T01:49:22.129Z,8.63
2019-01-03T01:53:01.124Z,9.47
2019-01-03T01:56:09.814Z,9.80
2019-01-03T01:59:44.323Z,7.73
2019-01-03T02:02:49.981Z,10.03
2019-01-03T02:06:02.716Z,9.87
2019-01-03T02:09:20.543Z,10.07
2019-01-03T02:12:34.936Z,8.27
2019-01-03T02:15:27.841Z,12.97
2019-01-03T02:18:15.151Z,10.70
2019-01-03T02:21:05.395Z,5.53
2019-01-03T02:23:55.725Z,7.23
2019-01-03T02:26:44.240Z,9.00
2019-01-03T02:29:52.161Z,14.50
2019-01-03T02:32:59.099Z,7.63
2019-01-03T02:36:00.265Z,8.60
2019-01-03T02:38:49.296Z,9.43
2019-01-03T02:41:38.571Z,8.97
2019-01-03T02:44:28.087Z,7.03
2019-01-03T02:47:16.703Z,9.43
2019-01-03T02:50:05.641Z,13.27
2019-01-03T02:52:54.936Z,9.03
2019-01-03T02:55:42.572Z,7.37
2019-01-03T02:58:31.272Z,7.93
2019-01-03T03:01:12.245Z,8.77
2019-01-03T03:04:06.791Z,13.07
2019-01-03T03:07:09.678Z,11.03
2019-01-03T03:09:59.213Z,8.80
2019-01-03T03:12:52.427Z,8.37
2019-01-03T03:15:59.500Z,8.50
2019-01-03T03:18:53.374Z,12.57
2019-01-03T03:21:45.064Z,13.40
2019-01-03T03:24:28.136Z,10.43
2019-01-03T03:27:23.484Z,8.43
2019-01-03T03:30:39.699Z,11.30
2019-01-03T03:33:31.547Z,8.37
2019-01-03T03:36:19.473Z,7.70
2019-01-03T03:39:12.424Z,7.23
2019-01-03T03:42:11.420Z,7.40
2019-01-03T03:44:51.502Z,11.67
2019-01-03T03:47:43.017Z,11.30
2019-01-03T03:50:39.360Z,10.30
2019-01-03T03:53:27.888Z,8.27
2019-01-03T03:56:10.449Z,8.07
2019-01-03T03:59:28.361Z,10.73
2019-01-03T04:02:32.215Z,7.77
2019-01-03T04:05:23.274Z,7.13
2019-01-03T04:08:24.280Z,7.40
2019-01-03T04:11:13.088Z,8.20
2019-01-03T04:14:12.448Z,9.57
2019-01-03T04:17:01.991Z,6.67
2019-01-03T04:20:02.962Z,9.87
2019-01-03T04:22:52.811Z,8.77
2019-01-03T04:25:47.896Z,8.80
2019-01-03T04:28:45.544Z,10.03
2019-01-03T04:31:46.348Z,10.03
2019-01-03T04:34:32.156Z,5.80
2019-01-03T04:37:21.116Z,5.37
2019-01-03T04:40:23.346Z,8.90
2019-01-03T04:43:08.285Z,5.43
2019-01-03T04:46:02.275Z,6.47
2019-01-03T04:48:50.947Z,5.83
2019-01-03T04:51:48.616Z,10.33
2019-01-03T04:54:37.573Z,11.43
2019-01-03T04:57:25.263Z,9.90
2019-01-03T05:00:27.660Z,6.30
2019-01-03T05:03:25.851Z,8.20
2019-01-03T05:06:13.568Z,9.40
2019-01-03T05:09:03.054Z,10.57
2019-01-03T05:11:51.766Z,11.30
2019-01-03T05:14:50.902Z,10.47
2019-01-03T05:18:01.380Z,8.10
2019-01-03T05:20:49.130Z,8.73
2019-01-03T05:23:38.718Z,6.70
2019-01-03T05:26:30.836Z,8.80
2019-01-03T05:29:39.025Z,8.33
2019-01-03T05:32:39.698Z,8.83
2019-01-03T05:35:42.245Z,6.37
2019-01-03T05:38:28.300Z,6.60
2019-01-03T05:41:20.802Z,10.43
2019-01-03T05:44:08.376Z,9.50
2019-01-03T05:47:11.074Z,5.63
2019-01-03T05:50:01.941Z,10.27
2019-01-03T05:52:43.181Z,6.20
2019-01-03T05:55:40.603Z,7.63
2019-01-03T05:58:28.101Z,9.67
2019-01-03T06:01:35.191Z,8.37
2019-01-03T06:04:22.937Z,11.77
2019-01-03T06:07:17.793Z,6.73
2019-01-03T06:10:05.652Z,11.57
2019-01-03T06:12:50.858Z,6.30
2019-01-03T06:15:38.382Z,7.23
2019-01-03T06:18:42.652Z,7.27
2019-01-03T06:21:38.358Z,11.50
2019-01-03T06:24:27.257Z,8.47
2019-01-03T06:27:16.704Z,9.40
2019-01-03T06:30:04.186Z,7.77
2019-01-03T06:32:52.054Z,6.90
2019-01-03T06:35:44.943Z,16.77
2019-01-03T06:38:28.557Z,10.63
2019-01-03T06:41:20.695Z,8.03
2019-01-03T06:44:11.535Z,9.40
2019-01-03T06:47:02.331Z,9.80
2019-01-03T06:49:51.862Z,10.43
2019-01-03T06:52:42.018Z,8.77
2019-01-03T06:55:29.857Z,9.10
2019-01-03T06:58:22.607Z,8.20
2019-01-03T07:01:25.169Z,10.67
2019-01-03T07:04:25.026Z,9.00
2019-01-03T07:07:22.795Z,5.10
2019-01-03T07:10:10.536Z,16.63
2019-01-03T07:13:00.696Z,9.17
2019-01-03T07:15:48.944Z,5.60
2019-01-03T07:18:57.820Z,11.53
2019-01-03T07:21:39.501Z,8.30
2019-01-03T07:24:41.434Z,7.13
2019-01-03T07:27:36.788Z,6.47
2019-01-03T07:30:21.319Z,8.23
2019-01-03T07:33:10.256Z,10.57
2019-01-03T07:36:14.912Z,9.17
2019-01-03T07:39:04.298Z,8.93
2019-01-03T07:41:50.075Z,9.23
2019-01-03T07:44:52.536Z,11.33
2019-01-03T07:47:39.880Z,11.50
2019-01-03T07:50:46.863Z,7.40
2019-01-03T07:53:40.361Z,12.93
2019-01-03T07:56:27.619Z,8.27
2019-01-03T07:59:17.164Z,7.87
2019-01-03T08:02:15.994Z,6.60
2019-01-03T08:05:07.680Z,8.43
2019-01-03T08:07:55.251Z,11.23
2019-01-03T08:10:48.748Z,7.77
2019-01-03T08:13:44.582Z,8.13
2019-01-03T08:16:48.211Z,7.80
2019-01-03T08:19:37.984Z,13.43
2019-01-03T08:22:35.554Z,12.27
2019-01-03T08:25:23.255Z,10.73
2019-01-03T08:28:11.115Z,14.37
2019-01-03T08:30:59.910Z,6.00
2019-01-03T08:33:51.776Z,9.93
2019-01-03T08:36:40.819Z,7.43
2019-01-03T08:39:41.241Z,8.73
2019-01-03T08:42:36.028Z,12.03
2019-01-03T08:45:24.030Z,8.63
2019-01-03T08:48:12.586Z,13.10
2019-01-03T08:51:04.614Z,11.73
2019-01-03T08:53:52.179Z,10.67
2019-01-03T08:56:40.893Z,12.27
2019-01-03T08:59:30.118Z,11.20
2019-01-03T09:02:17.449Z,14.43
2019-01-03T09:05:15.192Z,7.63
2019-01-03T09:08:02.640Z,7.37
2019-01-03T09:11:00.012Z,10.47
2019-01-03T09:13:50.246Z,12.10
2019-01-03T09:16:54.072Z,9.80
2019-01-03T09:19:56.001Z,7.93
2019-01-03T09:23:00.105Z,10.60
2019-01-03T09:26:07.455Z,10.37
2019-01-03T09:28:57.446Z,7.53
2019-01-03T09:31:46.552Z,9.37
2019-01-03T09:34:37.896Z,8.97
2019-01-03T09:37:27.100Z,7.40
2019-01-03T09:40:18.661Z,7.93
2019-01-03T09:43:08.238Z,10.77
2019-01-03T09:45:44.108Z,9.17
2019-01-03T09:48:30.724Z,9.63
2019-01-03T09:51:06.298Z,9.23
2019-01-03T09:53:38.992Z,13.20
2019-01-03T09:56:13.740Z,11.47
2019-01-03T09:58:47.852Z,12.67
2019-01-03T10:01:17.885Z,9.47
2019-01-03T10:03:51.436Z,10.23
2019-01-03T10:07:08.757Z,11.60
2019-01-03T10:09:42.037Z,8.73
2019-01-03T10:12:13.739Z,9.77
2019-01-03T10:14:43.560Z,14.83
2019-01-03T10:17:13.625Z,9.60
2019-01-03T10:19:56.878Z,11.47
2019-01-03T10:22:30.085Z,12.60
2019-01-03T10:25:02.289Z,12.70
2019-01-03T10:27:32.779Z,8.93
2019-01-03T10:30:09.886Z,11.63
2019-01-03T10:32:44.331Z,19.30
2019-01-03T10:35:21.234Z,7.93
2019-01-03T10:37:57.271Z,6.67
2019-01-03T10:40:28.033Z,9.17
2019-01-03T10:43:01.557Z,9.40
2019-01-03T10:45:36.085Z,9.83
2019-01-03T10:48:09.228Z,9.03
2019-01-03T10:50:46.739Z,8.87
2019-01-03T10:53:19.594Z,9.50
2019-01-03T10:55:51.277Z,10.47
2019-01-03T10:58:23.780Z,6.03
2019-01-03T11:01:16.337Z,7.93
2019-01-03T11:03:46.736Z,9.40
2019-01-03T11:06:17.898Z,7.43
2019-01-03T11:08:50.070Z,7.37
2019-01-03T11:11:21.829Z,8.17
2019-01-03T11:13:57.104Z,7.43
2019-01-03T11:16:32.179Z,7.53
2019-01-03T11:19:03.621Z,9.13
2019-01-03T11:21:36.712Z,10.07
2019-01-03T11:24:11.710Z,11.70
2019-01-03T11:26:43.540Z,13.33
2019-01-03T11:29:19.912Z,9.37
2019-01-03T11:31:54.192Z,9.70
2019-01-03T11:34:25.799Z,8.50
2019-01-03T11:36:57.808Z,7.07
2019-01-03T11:39:27.853Z,11.03
2019-01-03T11:41:57.937Z,12.57
2019-01-03T11:44:28.968Z,8.00
2019-01-03T11:47:01.568Z,10.97
2019-01-03T11:49:35.099Z,6.93
2019-01-03T11:52:07.490Z,7.80
2019-01-03T11:54:48.079Z,7.63
2019-01-03T11:57:18.749Z,10.67
2019-01-03T11:59:49.901Z,8.87
2019-01-03T12:02:25.574Z,10.23
2019-01-03T12:04:54.596Z,11.00
2019-01-03T12:07:28.471Z,9.13
2019-01-03T12:09:59.961Z,11.33
2019-01-03T12:12:34.099Z,6.07
2019-01-03T12:15:04.883Z,7.83
2019-01-03T12:17:45.425Z,10.07
2019-01-03T12:20:19.318Z,7.60
2019-01-03T12:22:53.413Z,8.60
2019-01-03T12:26:02.949Z,14.60
2019-01-03T12:28:53.835Z,9.50
2019-01-03T12:31:49.017Z,9.37
2019-01-03T12:34:18.781Z,9.10
2019-01-03T12:36:50.463Z,9.17
2019-01-03T12:39:20.431Z,9.27
2019-01-03T12:41:51.257Z,12.10
2019-01-03T12:44:23.191Z,9.67
2019-01-03T12:46:54.044Z,8.97
2019-01-03T12:49:24.444Z,12.00
2019-01-03T12:51:55.064Z,10.00
2019-01-03T12:54:29.351Z,10.83
2019-01-03T12:57:19.928Z,7.70
2019-01-03T13:00:14.218Z,10.00
2019-01-03T13:02:44.070Z,6.47
2019-01-03T13:05:16.647Z,8.73
2019-01-03T13:07:48.410Z,7.27
2019-01-03T13:10:19.587Z,8.47
2019-01-03T13:12:54.343Z,12.77
2019-01-03T13:15:25.685Z,10.43
2019-01-03T13:17:56.202Z,9.27
2019-01-03T13:20:27.415Z,7.53
2019-01-03T13:22:57.952Z,6.10
2019-01-03T13:25:28.018Z,8.63
2019-01-03T13:28:01.613Z,13.17
2019-01-03T13:30:33.513Z,12.03
2019-01-03T13:33:05.336Z,14.47
2019-01-03T13:35:39.914Z,15.83
2019-01-03T13:38:15.400Z,9.27
2019-01-03T13:40:46.617Z,8.13
2019-01-03T13:43:21.166Z,10.47
2019-01-03T13:45:55.430Z,8.67
2019-01-03T13:48:26.615Z,13.00
2019-01-03T13:50:56.592Z,11.87
2019-01-03T13:53:27.858Z,11.50
2019-01-03T13:55:58.915Z,11.77
2019-01-03T13:58:31.579Z,9.87
2019-01-03T14:01:52.119Z,14.47
2019-01-03T14:04:37.601Z,8.50
2019-01-03T14:07:10.805Z,13.30
2019-01-03T14:09:41.782Z,14.23
2019-01-03T14:12:13.995Z,11.47
2019-01-03T14:14:48.037Z,12.87
2019-01-03T14:17:20.588Z,11.47
2019-01-03T14:19:56.415Z,11.87
2019-01-03T14:22:27.456Z,11.97
2019-01-03T14:25:01.236Z,16.47
2019-01-03T14:27:33.985Z,9.73
2019-01-03T14:30:04.494Z,11.63
2019-01-03T14:32:36.632Z,12.33
2019-01-03T14:35:09.401Z,13.83
2019-01-03T14:41:09.357Z,8.63
2019-01-03T14:43:44.477Z,16.47
2019-01-03T14:46:26.908Z,14.30
2019-01-03T14:48:58.950Z,12.20
2019-01-03T14:51:31.998Z,11.53
2019-01-03T14:54:41.789Z,13.00
2019-01-03T14:57:16.961Z,10.03
2019-01-03T14:59:50.038Z,11.17
2019-01-03T15:02:24.229Z,9.53
2019-01-03T15:04:56.095Z,9.63
2019-01-03T15:07:26.806Z,11.93
2019-01-03T15:09:59.736Z,11.40
2019-01-03T15:12:32.418Z,11.67
2019-01-03T15:15:03.091Z,10.80
2019-01-03T15:17:37.031Z,11.47
2019-01-03T15:20:08.096Z,11.30
2019-01-03T15:22:47.138Z,13.30
2019-01-03T15:25:18.459Z,13.57
2019-01-03T15:27:48.902Z,7.87
2019-01-03T15:30:20.204Z,13.57
2019-01-03T15:32:50.180Z,13.33
2019-01-03T15:35:21.337Z,11.77
2019-01-03T15:37:54.421Z,15.23
2019-01-03T15:41:38.712Z,13.80
2019-01-03T15:44:14.853Z,12.37
2019-01-03T15:47:50.043Z,13.60
2019-01-03T15:54:09.273Z,10.87
2019-01-03T15:56:42.919Z,8.90
2019-01-03T15:59:12.845Z,10.67
2019-01-03T16:01:46.232Z,17.53
2019-01-03T16:04:17.456Z,8.53
2019-01-03T16:13:17.874Z,10.47
2019-01-03T16:16:15.986Z,13.93
2019-01-03T16:18:47.697Z,10.50
2019-01-03T16:21:27.954Z,12.27
2019-01-03T16:24:02.478Z,16.40
2019-01-03T17:20:00.226Z,10.17
2019-01-03T17:37:18.673Z,13.07
2019-01-03T17:40:02.351Z,13.57
2019-01-03T17:45:48.573Z,7.63
2019-01-03T17:48:18.101Z,10.27
2019-01-03T17:51:35.586Z,15.70
2019-01-03T18:17:13.831Z,11.17
2019-01-03T18:20:13.175Z,14.57
2019-01-03T18:40:44.873Z,9.23
2019-01-03T18:43:15.320Z,8.30
2019-01-03T18:46:09.560Z,18.07
2019-01-03T18:48:48.105Z,24.43
2019-01-03T18:51:19.664Z,27.23
2019-01-03T18:54:01.534Z,32.33
2019-01-03T18:56:45.263Z,37.10
2019-01-03T18:59:26.694Z,31.43
2019-01-03T19:01:58.923Z,32.80
2019-01-03T19:04:31.957Z,43.73
2019-01-03T19:07:08.570Z,29.03
2019-01-03T19:09:40.965Z,17.20
2019-01-03T19:12:12.084Z,23.90
2019-01-03T19:14:43.140Z,19.43
2019-01-03T19:17:13.721Z,18.57
2019-01-03T19:19:43.982Z,13.40
2019-01-03T19:22:13.675Z,14.70
2019-01-03T19:24:44.095Z,11.50
2019-01-03T19:27:16.683Z,13.67
2019-01-03T19:29:46.464Z,15.43
2019-01-03T19:32:16.687Z,14.67
2019-01-03T19:34:49.864Z,13.93
2019-01-03T19:37:19.861Z,17.03
2019-01-03T19:39:49.967Z,16.20
2019-01-03T19:42:19.740Z,15.10
2019-01-03T19:44:51.999Z,13.73
2019-01-03T19:47:22.929Z,21.87
2019-01-03T19:49:53.845Z,14.43
2019-01-03T19:52:24.185Z,16.03
2019-01-03T19:54:54.398Z,19.27
2019-01-03T19:57:26.852Z,12.87
2019-01-03T19:59:58.868Z,13.77
2019-01-03T20:02:40.276Z,12.77
2019-01-03T20:05:11.251Z,12.83
2019-01-03T20:07:47.870Z,13.37
2019-01-03T20:10:37.948Z,14.20
2019-01-03T20:13:29.550Z,11.43
2019-01-03T20:16:09.965Z,17.53
2019-01-03T20:18:47.296Z,14.37
2019-01-03T20:21:20.793Z,16.20
2019-01-03T20:24:10.737Z,12.40
2019-01-03T20:26:44.068Z,18.93
2019-01-03T20:29:19.346Z,14.30
2019-01-03T20:31:58.021Z,13.37
2019-01-03T20:34:31.275Z,16.27
2019-01-03T20:37:30.054Z,13.80
2019-01-03T20:40:02.569Z,16.43
2019-01-03T20:42:33.858Z,15.37
2019-01-03T20:45:17.998Z,14.60
2019-01-03T20:48:08.900Z,12.30
2019-01-03T20:50:56.845Z,15.47
2019-01-03T20:53:29.567Z,13.83
2019-01-03T20:56:00.584Z,9.43
2019-01-03T20:58:34.130Z,16.63
2019-01-03T21:01:10.311Z,15.60
2019-01-03T21:03:53.847Z,17.70
2019-01-03T21:06:26.441Z,16.53
2019-01-03T21:09:01.787Z,12.67
2019-01-03T21:11:32.022Z,14.53
2019-01-03T21:14:12.554Z,11.27
2019-01-03T21:16:49.964Z,10.47
2019-01-03T21:19:25.402Z,13.50
2019-01-03T21:24:52.024Z,13.17
2019-01-03T21:27:26.480Z,19.03
2019-01-03T21:30:17.823Z,12.90
2019-01-03T21:32:58.032Z,15.27
2019-01-03T21:35:31.058Z,16.90
2019-01-03T21:38:07.682Z,15.97
2019-01-03T21:40:45.637Z,15.97
2019-01-03T21:43:18.493Z,21.33
2019-01-03T21:45:50.266Z,30.57
2019-01-03T21:48:20.550Z,37.23
2019-01-03T21:50:50.408Z,48.33
2019-01-03T21:53:24.009Z,51.63
2019-01-03T21:55:55.700Z,49.73
2019-01-03T21:58:25.360Z,28.50
2019-01-03T22:00:55.076Z,22.17
2019-01-03T22:03:24.750Z,25.87
2019-01-03T22:05:55.105Z,35.83
2019-01-03T22:08:24.866Z,28.33
2019-01-03T22:10:56.927Z,26.20
2019-01-03T22:13:29.002Z,24.47
2019-01-03T22:15:58.955Z,22.40
2019-01-03T22:18:30.303Z,21.90
2019-01-03T22:21:00.366Z,21.63
2019-01-03T22:23:30.747Z,25.53
2019-01-03T22:26:01.084Z,22.47
2019-01-03T22:28:32.434Z,23.73
2019-01-03T22:31:03.737Z,16.57
2019-01-03T22:33:34.619Z,14.93
2019-01-03T22:36:44.923Z,18.73
2019-01-03T22:39:19.765Z,14.33
2019-01-03T22:41:52.536Z,16.87
2019-01-03T22:44:31.302Z,21.30
2019-01-03T22:47:01.423Z,17.50
2019-01-03T22:49:31.690Z,17.50
2019-01-03T22:52:06.863Z,17.90
2019-01-03T22:54:37.100Z,17.97
2019-01-03T22:57:33.153Z,15.13
2019-01-03T23:00:03.244Z,14.50
2019-01-03T23:02:33.153Z,18.77
2019-01-03T23:05:04.028Z,16.90
2019-01-03T23:07:34.866Z,18.93
2019-01-03T23:10:08.961Z,16.90
2019-01-03T23:12:39.093Z,19.80
2019-01-03T23:15:09.191Z,14.47
2019-01-03T23:17:40.580Z,13.33
2019-01-03T23:20:10.650Z,20.40
2019-01-03T23:22:40.355Z,15.33
2019-01-03T23:25:12.296Z,16.30
2019-01-03T23:27:42.321Z,15.73
2019-01-03T23:30:12.136Z,17.50
2019-01-03T23:32:43.072Z,16.33
2019-01-03T23:35:12.818Z,14.33
2019-01-03T23:37:43.652Z,19.70
2019-01-03T23:40:16.024Z,16.23
2019-01-03T23:42:48.487Z,17.10
2019-01-03T23:45:26.242Z,15.70
2019-01-03T23:47:57.882Z,17.97
2019-01-03T23:50:32.900Z,15.17
2019-01-03T23:53:03.445Z,16.03
2019-01-03T23:55:36.943Z,19.03
2019-01-03T23:58:08.327Z,17.20
